Have a Safe July 4th! 

Flight Track Log - Related Links

Times and Time Zones

All times are in EDT time to prevent confusion due to time zone crossing. See the N2116L flight status page for this flight to view local times or setup timezone preferences in your user account.

Time Position Orientation Groundspeed Altitude Reporting Facility
EDT Latitude Longitude Course Direction KTS MPH feet Rate Location/Type
Sun 11:10:19 AM 36.0975 -83.7303 353° North 116 133 5,900  Level Atlanta Center
Sun 11:11:19 AM 36.1331 -83.7353 354° North 135 155 6,000 50 Climbing Atlanta Center
Sun 11:12:19 AM 36.1747 -83.7403 354° North 142 163 6,000  Level Atlanta Center
Sun 11:13:19 AM 36.2186 -83.7478 352° North 147 169 6,000 -35 Level Atlanta Center
Sun 11:14:00 AM 36.2993 -83.6114 353° North  Level FlightAware Approximate
Sun 11:15:11 AM 36.3008 -83.7564 355° North 160 184 5,900  Level Indianapolis Center
Sun 11:16:12 AM 36.3528 -83.7628 354° North 157 181 6,000 49 Climbing Indianapolis Center
Sun 11:17:14 AM 36.3947 -83.7697 352° North 154 177 6,000  Level Indianapolis Center
Sun 11:18:15 AM 36.4331 -83.7742 355° North 145 167 6,000  Level Indianapolis Center
Sun 11:19:17 AM 36.4708 -83.7794 354° North 140 161 6,000  Level Indianapolis Center
Sun 11:20:18 AM 36.5133 -83.7847 354° North 141 162 6,000  Level Indianapolis Center
Sun 11:21:20 AM 36.5611 -83.7928 352° North 160 184 6,000  Level Indianapolis Center
Sun 11:22:21 AM 36.6083 -83.8008 352° North 168 193 6,000  Level Indianapolis Center
Sun 11:23:23 AM 36.6556 -83.8050 356° North 169 194 6,000  Level Indianapolis Center
Sun 11:24:24 AM 36.7008 -83.8103 355° North 166 191 6,000  Level Indianapolis Center
Sun 11:25:26 AM 36.7478 -83.8172 353° North 167 192 6,000  Level Indianapolis Center
Sun 11:26:27 AM 36.7939 -83.8231 354° North 168 193 6,000  Level Indianapolis Center
Sun 11:27:29 AM 36.8500 -83.8322 353° North 172 198 6,000  Level Indianapolis Center
Sun 11:28:30 AM 36.8972 -83.8386 354° North 171 197 6,000  Level Indianapolis Center
Sun 11:29:31 AM 36.9461 -83.8453 354° North 174 200 6,000  Level Indianapolis Center
Sun 11:30:33 AM 36.9942 -83.8525 353° North 174 200 6,000  Level Indianapolis Center
Sun 11:31:34 AM 37.0422 -83.8606 352° North 173 199 6,000  Level Indianapolis Center
Sun 11:32:36 AM 37.0900 -83.8656 355° North 173 199 6,000  Level Indianapolis Center
Sun 11:33:37 AM 37.1389 -83.8717 354° North 175 201 6,000  Level Indianapolis Center
Sun 11:34:38 AM 37.1881 -83.8800 352° North 177 204 6,000  Level Indianapolis Center
Sun 11:35:40 AM 37.2375 -83.8875 353° North 177 204 6,000  Level Indianapolis Center
Sun 11:36:41 AM 37.2947 -83.8936 355° North 176 203 6,000  Level Indianapolis Center
Sun 11:37:43 AM 37.3444 -83.9019 352° North 177 204 6,000  Level Indianapolis Center
Sun 11:38:44 AM 37.3925 -83.9097 353° North 175 201 6,000  Level Indianapolis Center
Sun 11:39:46 AM 37.4419 -83.9150 355° North 177 204 6,000  Level Indianapolis Center
Sun 11:40:47 AM 37.4900 -83.9214 354° North 175 201 6,000  Level Indianapolis Center
Sun 11:41:48 AM 37.5383 -83.9294 352° North 174 200 6,000 -49 Level Indianapolis Center
Sun 11:42:50 AM 37.5864 -83.9342 356° North 173 199 5,900 -49 Descending Indianapolis Center
Sun 11:43:51 AM 37.6344 -83.9411 353° North 173 199 5,900  Level Indianapolis Center
Sun 11:44:53 AM 37.6814 -83.9489 353° North 171 197 5,900  Level Indianapolis Center
Sun 11:45:54 AM 37.7386 -83.9575 353° North 175 201 5,900  Level Indianapolis Center
Sun 11:46:56 AM 37.7872 -83.9639 354° North 175 201 5,900  Level Indianapolis Center
Sun 11:47:57 AM 37.8358 -83.9725 352° North 176 203 5,900  Level Indianapolis Center
Sun 11:48:59 AM 37.8847 -83.9789 354° North 176 203 5,900  Level Indianapolis Center
Sun 11:50:00 AM 37.9342 -83.9847 355° North 177 204 5,900  Level Indianapolis Center
Sun 11:51:02 AM 37.9839 -83.9919 353° North 178 205 5,900 -244 Level Indianapolis Center
Sun 11:52:03 AM 38.0361 -84.0022 351° North 183 211 5,400 -439 Descending Indianapolis Center
Sun 11:53:05 AM 38.0919 -84.0078 356° North 192 221 5,000 -195 Descending Indianapolis Center
Sun 11:54:06 AM 38.1525 -84.0139 355° North 191 220 5,000  Level Indianapolis Center
Sun 11:55:08 AM 38.2014 -84.0200 354° North 184 212 5,000  Level Indianapolis Center
Sun 11:56:10 AM 38.2475 -84.0275 353° North 175 201 5,000  Level Indianapolis Center
Sun 11:57:11 AM 38.2947 -84.0347 353° North 172 198 5,000  Level Indianapolis Center
Sun 11:58:13 AM 38.3411 -84.0433 352° North 170 196 5,000  Level Indianapolis Center
Sun 11:59:14 AM 38.3900 -84.0517 352° North 173 199 5,000  Level Indianapolis Center
Sun 12:00:16 PM 38.4392 -84.0578 354° North 175 201 5,000  Level Indianapolis Center
Sun 12:01:17 PM 38.4961 -84.0650 354° North 176 203 5,000  Level Indianapolis Center
Sun 12:02:19 PM 38.5458 -84.0728 353° North 178 205 5,000  Level Indianapolis Center
Sun 12:03:20 PM 38.5947 -84.0800 353° North 178 205 5,000  Level Indianapolis Center
Sun 12:04:22 PM 38.6447 -84.0864 354° North 179 206 5,000  Level Indianapolis Center
Sun 12:05:24 PM 38.6933 -84.0944 353° North 178 205 5,000  Level Indianapolis Center
Sun 12:06:25 PM 38.7431 -84.1019 353° North 178 205 5,000  Level Indianapolis Center
Sun 12:07:27 PM 38.7947 -84.1092 354° North 181 208 5,000  Level Indianapolis Center
Sun 12:08:28 PM 38.8458 -84.1161 354° North 183 211 5,000  Level Indianapolis Center
Sun 12:09:30 PM 38.8953 -84.1233 354° North 179 206 5,000  Level Indianapolis Center
Sun 12:10:31 PM 38.9450 -84.1303 354° North 178 205 5,000  Level Indianapolis Center
Sun 12:11:33 PM 39.0036 -84.1394 353° North 179 206 5,000  Level Indianapolis Center
Sun 12:12:35 PM 39.0542 -84.1458 354° North 179 206 5,000  Level Indianapolis Center
Sun 12:13:36 PM 39.1042 -84.1539 353° North 180 207 5,000  Level Indianapolis Center
Sun 12:14:38 PM 39.1506 -84.1600 354° North 174 200 5,000  Level Indianapolis Center
Sun 12:15:39 PM 39.2000 -84.1711 350° North 167 192 5,000  Level Indianapolis Center
Sun 12:16:04 PM 39.2169 -84.1706 North 168 193 5,000  Level Indianapolis Center
Sun 12:16:41 PM 39.2453 -84.1744 354° North 170 196 5,000  Level Indianapolis Center
Sun 12:17:04 PM 39.2647 -84.1767 355° North 172 198 5,000  Level Indianapolis Center
Sun 12:17:43 PM 39.2944 -84.1711 North 174 200 5,000  Level Indianapolis Center
Sun 12:18:05 PM 39.3142 -84.1617 20° North 186 214 5,000  Level Indianapolis Center
Sun 12:18:44 PM 39.3436 -84.1522 14° North 181 208 5,000  Level Indianapolis Center
Sun 12:19:06 PM 39.3656 -84.1469 11° North 178 205 5,000  Level Indianapolis Center
Sun 12:19:46 PM 39.3917 -84.1378 15° North 178 205 5,000  Level Indianapolis Center
Sun 12:20:06 PM 39.4150 -84.1317 11° North 179 206 5,000  Level Indianapolis Center
Sun 12:20:47 PM 39.4414 -84.1231 14° North 179 206 5,000  Level Indianapolis Center
Sun 12:21:07 PM 39.4622 -84.1161 14° North 179 206 5,000  Level Indianapolis Center
Sun 12:21:49 PM 39.4911 -84.1081 12° North 180 207 5,000  Level Indianapolis Center
Sun 12:22:07 PM 39.5117 -84.1011 15° North 182 209 5,000 -197 Level Indianapolis Center
Sun 12:22:50 PM 39.5411 -84.0925 13° North 181 208 4,800 -590 Descending Indianapolis Center
Sun 12:23:08 PM 39.5653 -84.0864 11° North 194 223 4,400 -774 Descending Indianapolis Center
Sun 12:23:52 PM 39.6067 -84.0719 15° North 194 223 4,000 -393 Descending Indianapolis Center
Sun 12:24:09 PM 39.6189 -84.0689 11° North 207 238 4,000  Level Indianapolis Center
Sun 12:24:53 PM 39.6594 -84.0561 14° North 196 226 4,000 -226 Level Indianapolis Center
Sun 12:25:55 PM 39.7089 -84.0394 15° North 189 217 3,600 -468 Descending Indianapolis Center
Sun 12:26:10 PM 39.7239 -84.0392 North 185 213 3,400 -492 Descending Indianapolis Center
Sun 12:26:56 PM 39.7472 -84.0703 314° West 178 205 3,100 -295 Descending Indianapolis Center
Sun 12:27:11 PM 39.7472 -84.0883 270° West 156 180 3,100  Level Indianapolis Center
Sun 12:27:58 PM 39.7572 -84.1225 291° West 157 181 3,100  Level Indianapolis Center
Sun 12:28:17 PM 39.7500 -84.1350 233° Southwest 119 137 3,100 -197 Level Indianapolis Center
Sun 12:28:59 PM 39.7328 -84.1489 212° Southwest 132 152 2,900 -393 Descending Indianapolis Center
Sun 12:29:18 PM 39.7208 -84.1583 211° Southwest 114 131 2,700 -290 Descending Indianapolis Center
Sun 12:30:01 PM 39.7022 -84.1661 198° South 123 142 2,600 -57 Descending Indianapolis Center
Sun 12:31:03 PM 39.6736 -84.1778 197° South 114 131 2,600 -146 Level Indianapolis Center
Sun 12:32:04 PM 39.6492 -84.1925 205° Southwest 108 124 2,300 -500 Descending Indianapolis Center
Sun 12:33:15 PM 39.6161 -84.2122 205° Southwest 94 108 1,500 -676 Descending Indianapolis Center

Login

Don't have an account? Register now (free) for customized features, flight alerts, and more!